Time;durP1;ratioP1;P1;durP2;ratioP2;P2;SDS_P1;SDS_P2;PMS_P1;PMS_P2;Temp;Humidity;BMP_temperature;BMP_pressure;BME280_temperature;BME280_humidity;BME280_pressure;Samples;Min_cycle;Max_cycle;Signal;HPM_P1;HPM_P2
2022/07/06 00:01:46;;;;;;;3.57;1.63;;;;;;;25.98;43.19;98782.34;6069905;23;20153;-85
2022/07/06 00:04:12;;;;;;;6.70;2.63;;;;;;;25.95;43.42;98780.88;6069568;23;20188;-85
2022/07/06 00:06:38;;;;;;;3.47;1.93;;;;;;;25.89;43.85;98772.75;6069568;23;20566;-86
2022/07/06 00:09:04;;;;;;;3.00;1.60;;;;;;;25.83;44.63;98777.00;6044500;23;20578;-86
2022/07/06 00:11:30;;;;;;;7.70;1.40;;;;;;;25.75;44.90;98781.63;6068338;23;20168;-86
2022/07/06 00:13:56;;;;;;;3.40;1.37;;;;;;;25.68;45.79;98776.19;6068270;23;20195;-86
2022/07/06 00:16:22;;;;;;;4.53;1.97;;;;;;;25.59;45.63;98777.28;6068200;23;20188;-85
2022/07/06 00:18:48;;;;;;;5.27;1.80;;;;;;;25.45;46.30;98776.22;6069245;23;20236;-85
2022/07/06 00:21:13;;;;;;;5.30;2.33;;;;;;;25.41;46.72;98774.91;6069438;23;20574;-85
2022/07/06 00:23:39;;;;;;;2.60;1.30;;;;;;;25.34;46.52;98778.53;6069226;23;20164;-86
2022/07/06 00:26:05;;;;;;;6.30;1.70;;;;;;;25.27;47.17;98778.41;6068661;23;20160;-85
2022/07/06 00:28:30;;;;;;;4.50;2.27;;;;;;;25.34;47.14;98775.84;6069471;23;20212;-85
2022/07/06 00:30:56;;;;;;;5.47;1.90;;;;;;;25.32;46.89;98775.16;6069537;23;20150;-85
2022/07/06 00:33:21;;;;;;;3.40;1.70;;;;;;;25.24;45.90;98767.19;6069339;23;20577;-85
2022/07/06 00:35:47;;;;;;;3.13;1.50;;;;;;;25.15;45.57;98768.31;6069121;23;20692;-85
2022/07/06 00:38:13;;;;;;;4.53;1.63;;;;;;;25.11;45.51;98764.28;6069286;23;20596;-85
2022/07/06 00:40:38;;;;;;;4.90;1.50;;;;;;;25.15;45.19;98765.63;6068086;23;20161;-85
2022/07/06 00:43:04;;;;;;;7.27;1.70;;;;;;;25.10;45.19;98757.28;6069232;23;20149;-85
2022/07/06 00:45:30;;;;;;;3.23;1.67;;;;;;;24.91;47.77;98767.50;6068769;23;20536;-85
2022/07/06 00:47:55;;;;;;;3.57;1.90;;;;;;;24.86;48.15;98759.16;6044181;23;20597;-86
2022/07/06 00:50:21;;;;;;;6.77;1.73;;;;;;;24.91;48.02;98769.34;6068390;23;20157;-85
2022/07/06 00:52:51;;;;;;;2.57;1.50;;;;;;;24.99;47.84;98763.91;6068096;23;20224;-86
2022/07/06 00:55:20;;;;;;;3.30;1.60;;;;;;;24.83;48.81;98767.56;6068269;23;20184;-85
2022/07/06 00:57:46;;;;;;;4.33;1.70;;;;;;;24.63;49.58;98774.41;6069099;23;20153;-85
2022/07/06 01:00:14;;;;;;;5.00;2.10;;;;;;;24.46;50.09;98772.81;6068118;23;20240;-85
2022/07/06 01:02:40;;;;;;;4.20;2.00;;;;;;;24.49;49.52;98772.47;6044288;23;20164;-85
2022/07/06 01:05:08;;;;;;;5.23;2.03;;;;;;;24.47;49.93;98761.09;6069451;23;20200;-85
2022/07/06 01:07:34;;;;;;;2.37;1.47;;;;;;;24.57;48.96;98753.66;6069324;23;20160;-85
2022/07/06 01:10:01;;;;;;;3.40;1.67;;;;;;;24.50;49.47;98750.03;6043814;23;20183;-85
2022/07/06 01:12:26;;;;;;;5.17;1.63;;;;;;;24.41;50.43;98753.75;6043982;23;20157;-85
2022/07/06 01:14:52;;;;;;;2.90;1.83;;;;;;;24.49;50.06;98755.56;6067739;23;20247;-85
2022/07/06 01:17:18;;;;;;;5.03;2.00;;;;;;;24.48;49.96;98754.72;6068835;23;20157;-85
2022/07/06 01:19:44;;;;;;;3.63;1.70;;;;;;;24.28;51.14;98750.84;6069021;23;20160;-85
2022/07/06 01:22:10;;;;;;;4.00;1.30;;;;;;;24.21;51.03;98748.00;6067779;23;20153;-85
2022/07/06 01:24:37;;;;;;;4.93;1.73;;;;;;;24.20;51.37;98757.06;6067682;23;20175;-85
2022/07/06 01:27:06;;;;;;;3.43;1.67;;;;;;;24.19;51.37;98751.88;6069145;23;20531;-85
2022/07/06 01:29:32;;;;;;;5.03;1.87;;;;;;;24.20;50.44;98756.22;6068854;23;20149;-85
2022/07/06 01:31:58;;;;;;;5.53;2.13;;;;;;;24.19;50.40;98755.38;6067991;23;20164;-85
2022/07/06 01:34:23;;;;;;;4.57;1.90;;;;;;;24.18;51.36;98744.88;6044010;23;20180;-85
2022/07/06 01:36:49;;;;;;;3.43;1.67;;;;;;;24.16;51.56;98749.56;6043733;23;20164;-85
2022/07/06 01:39:14;;;;;;;5.20;1.80;;;;;;;24.06;51.75;98751.56;6068720;23;20562;-85
2022/07/06 01:41:40;;;;;;;6.10;2.37;;;;;;;24.07;51.35;98750.56;6069741;23;20150;-85
2022/07/06 01:44:06;;;;;;;4.47;1.80;;;;;;;24.05;51.39;98753.44;6068894;23;20236;-85
2022/07/06 01:46:32;;;;;;;3.90;1.90;;;;;;;24.07;51.36;98753.25;6067531;23;20189;-85
2022/07/06 01:48:58;;;;;;;4.43;1.70;;;;;;;24.05;50.86;98748.09;6068603;23;20211;-85
2022/07/06 01:51:24;;;;;;;6.27;2.63;;;;;;;23.95;51.50;98746.63;6067523;23;20159;-85
2022/07/06 01:53:50;;;;;;;4.80;2.10;;;;;;;23.92;52.31;98768.41;6068981;23;20164;-86
2022/07/06 01:56:17;;;;;;;3.27;1.70;;;;;;;23.74;52.83;98764.09;6068494;23;20173;-86
2022/07/06 01:58:43;;;;;;;6.10;1.90;;;;;;;23.64;53.02;98766.13;6069569;23;20231;-85
2022/07/06 02:01:17;;;;;;;5.00;2.47;;;;;;;23.64;52.69;98760.78;6068627;23;20227;-85
2022/07/06 02:03:43;;;;;;;8.37;3.40;;;;;;;23.83;52.30;98755.03;6068942;23;20140;-85
2022/07/06 02:06:09;;;;;;;8.70;4.17;;;;;;;23.77;52.43;98742.34;6043480;23;20172;-85
2022/07/06 02:08:36;;;;;;;6.33;3.07;;;;;;;23.66;52.75;98750.75;6068471;23;20173;-86
2022/07/06 02:11:03;;;;;;;9.17;3.50;;;;;;;23.56;53.18;98744.75;6043914;23;20169;-86
2022/07/06 02:13:29;;;;;;;8.00;3.23;;;;;;;23.59;52.98;98733.72;6069224;23;20671;-85
2022/07/06 02:15:54;;;;;;;6.53;3.40;;;;;;;23.56;53.55;98722.50;6068298;23;20172;-86
2022/07/06 02:18:20;;;;;;;7.97;3.97;;;;;;;23.71;52.71;98721.66;6068877;23;20464;-86
2022/07/06 02:20:46;;;;;;;11.37;4.53;;;;;;;23.68;52.99;98722.00;6067650;23;20164;-85
2022/07/06 02:23:11;;;;;;;12.57;4.57;;;;;;;23.55;53.94;98719.03;6043351;23;20574;-85
2022/07/06 02:25:36;;;;;;;10.17;3.80;;;;;;;23.37;54.29;98729.13;6068643;23;20149;-85
2022/07/06 02:28:02;;;;;;;8.60;3.87;;;;;;;23.23;54.86;98729.78;6068308;23;20228;-85
2022/07/06 02:30:28;;;;;;;14.37;4.50;;;;;;;23.34;54.66;98731.25;6068440;23;20153;-85
2022/07/06 02:32:53;;;;;;;10.50;3.93;;;;;;;23.45;53.87;98715.72;6068413;23;20149;-85
2022/07/06 02:35:18;;;;;;;10.43;4.27;;;;;;;23.42;54.52;98720.56;6068313;23;20177;-85
2022/07/06 02:37:44;;;;;;;8.70;4.07;;;;;;;23.38;54.67;98716.56;6067145;23;20605;-85
2022/07/06 02:40:10;;;;;;;12.87;4.90;;;;;;;23.46;54.16;98714.69;6044045;23;20573;-85
2022/07/06 02:42:36;;;;;;;11.47;5.20;;;;;;;23.46;53.41;98704.00;6043190;23;20153;-85
2022/07/06 02:45:01;;;;;;;11.10;4.27;;;;;;;23.58;53.24;98707.97;6068179;23;20215;-85
2022/07/06 02:47:27;;;;;;;7.73;3.90;;;;;;;23.57;53.62;98713.50;6067218;23;20239;-85
2022/07/06 02:49:52;;;;;;;12.37;4.77;;;;;;;23.52;53.88;98707.81;6067197;23;20157;-85
2022/07/06 02:52:19;;;;;;;10.30;5.20;;;;;;;23.44;53.84;98695.31;6070456;23;20232;-85
2022/07/06 02:54:44;;;;;;;8.50;4.17;;;;;;;23.39;54.27;98703.03;6069734;23;20205;-85
2022/07/06 02:57:10;;;;;;;9.77;4.60;;;;;;;23.22;55.03;98702.19;6069156;23;20592;-85
2022/07/06 02:59:36;;;;;;;10.53;4.17;;;;;;;23.23;54.76;98701.19;6070260;23;20570;-85
2022/07/06 03:02:06;;;;;;;7.57;3.40;;;;;;;23.29;54.50;98702.34;6070277;23;20160;-86
2022/07/06 03:04:31;;;;;;;7.20;3.33;;;;;;;23.33;54.82;98701.00;6069052;23;20161;-85
2022/07/06 03:06:57;;;;;;;5.63;2.93;;;;;;;23.20;55.20;98698.03;6070172;23;20478;-86
2022/07/06 03:09:22;;;;;;;8.07;3.73;;;;;;;23.11;55.34;98699.06;6069165;23;20508;-85
2022/07/06 03:11:48;;;;;;;15.13;3.83;;;;;;;23.12;55.39;98709.56;6044943;23;20154;-85
2022/07/06 03:14:13;;;;;;;8.67;3.00;;;;;;;23.23;55.60;98703.03;6044802;23;20161;-85
2022/07/06 03:16:39;;;;;;;7.17;2.57;;;;;;;23.21;55.33;98702.38;6070097;23;20231;-85
2022/07/06 03:19:04;;;;;;;7.37;3.77;;;;;;;23.08;56.07;98699.41;6044968;23;20164;-85
2022/07/06 03:21:30;;;;;;;8.70;3.67;;;;;;;23.20;55.83;98700.69;6070059;23;20188;-85
2022/07/06 03:23:55;;;;;;;6.13;2.80;;;;;;;23.27;55.38;98707.84;6070103;23;20589;-85
2022/07/06 03:26:21;;;;;;;5.87;2.63;;;;;;;23.21;55.50;98705.03;6068796;23;20161;-85
2022/07/06 03:28:46;;;;;;;7.83;2.70;;;;;;;23.05;56.45;98707.75;6070565;23;20153;-86
2022/07/06 03:31:12;;;;;;;9.13;3.00;;;;;;;23.04;56.47;98698.03;6068812;23;20154;-85
2022/07/06 03:33:37;;;;;;;6.37;3.20;;;;;;;22.99;57.27;98705.75;6069860;23;20165;-85
2022/07/06 03:36:03;;;;;;;5.30;2.50;;;;;;;23.13;56.72;98699.72;6070181;23;20181;-85
2022/07/06 03:38:28;;;;;;;6.73;2.63;;;;;;;23.11;56.73;98699.06;6045002;23;20174;-85
2022/07/06 03:40:54;;;;;;;8.97;3.17;;;;;;;23.11;57.11;98704.41;6069735;23;20634;-85
2022/07/06 03:43:19;;;;;;;8.00;2.80;;;;;;;23.00;57.38;98710.94;6045555;23;20236;-85
2022/07/06 03:45:44;;;;;;;6.00;3.23;;;;;;;23.02;57.27;98708.94;6045018;23;20157;-85
2022/07/06 03:48:10;;;;;;;10.00;2.90;;;;;;;23.06;57.85;98709.44;6068546;23;20197;-85
2022/07/06 03:50:35;;;;;;;12.47;3.20;;;;;;;22.97;57.74;98713.09;6068884;23;20161;-85
2022/07/06 03:53:01;;;;;;;5.07;2.63;;;;;;;23.06;57.72;98723.59;6044566;23;20239;-86
2022/07/06 03:55:26;;;;;;;6.60;2.43;;;;;;;23.22;57.02;98726.25;6044532;23;20196;-86
2022/07/06 03:57:52;;;;;;;5.57;2.77;;;;;;;23.18;56.95;98724.09;6068458;23;20157;-86
2022/07/06 04:00:17;;;;;;;6.63;2.30;;;;;;;23.16;57.18;98723.44;6044651;23;20161;-86
2022/07/06 04:02:43;;;;;;;10.43;2.20;;;;;;;23.24;57.42;98720.75;6068003;23;20498;-86
2022/07/06 04:05:08;;;;;;;4.80;2.20;;;;;;;23.33;56.82;98718.88;6068826;23;20232;-86
2022/07/06 04:07:34;;;;;;;4.37;2.13;;;;;;;23.42;57.02;98724.09;6044817;23;20569;-86
2022/07/06 04:09:59;;;;;;;4.17;2.20;;;;;;;23.51;56.45;98725.72;6068388;23;20169;-86
2022/07/06 04:12:25;;;;;;;5.73;2.70;;;;;;;23.59;56.12;98720.34;6069765;23;20149;-86
2022/07/06 04:14:50;;;;;;;3.23;1.90;;;;;;;23.67;55.83;98727.50;6068595;23;20189;-86
2022/07/06 04:19:59;;;;;;;6.30;2.30;;;;;;;23.92;54.53;98725.56;6069839;23;20152;-86
2022/07/06 04:22:25;;;;;;;5.00;1.93;;;;;;;23.98;54.81;98724.88;6069691;23;20161;-86
2022/07/06 04:24:50;;;;;;;4.53;2.07;;;;;;;24.06;55.11;98722.97;6044331;23;20153;-86
2022/07/06 04:27:16;;;;;;;5.43;1.73;;;;;;;24.08;55.11;98725.47;6069391;23;20149;-86
2022/07/06 04:29:41;;;;;;;4.10;1.70;;;;;;;24.08;55.40;98725.47;6044281;23;20157;-86
2022/07/06 04:32:07;;;;;;;6.67;2.10;;;;;;;24.10;56.08;98734.19;6070033;23;20153;-86
2022/07/06 04:34:32;;;;;;;6.83;2.03;;;;;;;24.17;55.70;98733.31;6069193;23;20181;-86
2022/07/06 04:36:58;;;;;;;6.03;2.60;;;;;;;24.28;55.39;98729.41;6069646;23;20183;-86
2022/07/06 04:39:23;;;;;;;6.40;1.90;;;;;;;24.30;55.93;98736.25;6044487;23;20486;-86
2022/07/06 04:41:49;;;;;;;4.63;1.97;;;;;;;24.36;55.75;98742.75;6069354;23;20224;-86
2022/07/06 04:44:14;;;;;;;6.73;2.23;;;;;;;24.50;55.78;98741.16;6068063;23;20189;-86
2022/07/06 04:46:40;;;;;;;6.30;2.17;;;;;;;24.56;54.81;98740.41;6068471;23;20161;-86
2022/07/06 04:49:05;;;;;;;8.37;1.90;;;;;;;24.61;55.04;98740.72;6044330;23;20164;-86
2022/07/06 04:51:30;;;;;;;3.90;1.80;;;;;;;24.72;55.02;98749.19;6068022;23;20612;-86
2022/07/06 04:53:56;;;;;;;3.70;1.73;;;;;;;24.86;55.25;98743.09;6068307;23;20157;-86
2022/07/06 04:56:21;;;;;;;3.50;1.67;;;;;;;24.97;54.46;98745.31;6068184;23;20185;-86
2022/07/06 04:58:47;;;;;;;3.33;1.83;;;;;;;25.01;54.12;98730.53;6069122;23;20160;-86
2022/07/06 05:01:12;;;;;;;4.37;2.07;;;;;;;25.12;53.97;98742.69;6069106;23;20149;-86
2022/07/06 05:03:40;;;;;;;5.37;2.20;;;;;;;25.19;53.85;98737.41;6069167;23;20149;-86
2022/07/06 05:06:07;;;;;;;7.70;2.80;;;;;;;25.30;53.41;98735.13;6069184;23;20460;-86
2022/07/06 05:08:33;;;;;;;5.70;2.10;;;;;;;25.48;52.20;98737.47;6044277;23;20597;-86
2022/07/06 05:10:59;;;;;;;5.93;2.10;;;;;;;25.56;51.41;98732.84;6067705;23;20208;-86
2022/07/06 05:13:24;;;;;;;5.90;1.60;;;;;;;25.70;49.19;98741.91;6067738;23;20157;-86
2022/07/06 05:15:49;;;;;;;3.93;1.50;;;;;;;25.85;48.10;98740.06;6067677;23;20227;-86
2022/07/06 05:18:15;;;;;;;9.27;1.50;;;;;;;26.05;46.96;98740.28;6068915;23;20176;-86
2022/07/06 05:20:41;;;;;;;7.40;2.07;;;;;;;26.23;46.88;98755.00;6067785;23;20185;-86
2022/07/06 05:23:06;;;;;;;2.67;1.27;;;;;;;26.33;46.97;98752.03;6067777;23;20289;-86
2022/07/06 05:25:32;;;;;;;4.47;1.47;;;;;;;26.45;46.37;98761.25;6067746;23;20216;-86
2022/07/06 05:27:58;;;;;;;3.20;1.13;;;;;;;26.49;45.59;98759.88;6068788;23;20224;-86
2022/07/06 05:30:25;;;;;;;4.38;1.33;;;;;;;26.84;45.59;98763.53;6067556;23;20495;-86
2022/07/06 05:32:50;;;;;;;3.10;1.67;;;;;;;27.04;46.18;98769.13;6068851;23;20160;-86
2022/07/06 05:35:16;;;;;;;5.80;2.05;;;;;;;27.10;43.45;98760.25;6067626;23;20185;-86
2022/07/06 05:37:41;;;;;;;2.78;1.25;;;;;;;27.29;42.50;98773.88;6067632;23;20224;-86
2022/07/06 05:40:08;;;;;;;2.20;1.20;;;;;;;27.47;43.74;98765.31;6069285;23;20149;-86
2022/07/06 05:42:33;;;;;;;3.90;1.40;;;;;;;27.70;45.10;98765.88;6068977;23;20224;-86
2022/07/06 05:44:58;;;;;;;6.63;1.60;;;;;;;27.71;45.40;98762.16;6043896;23;20228;-86
2022/07/06 05:50:14;;;;;;;3.35;1.52;;;;;;;27.83;44.72;98762.47;6069099;23;20145;-86
2022/07/06 05:52:45;;;;;;;3.90;1.70;;;;;;;27.76;45.04;98765.09;6044590;23;20713;-86
2022/07/06 05:55:11;;;;;;;3.35;1.10;;;;;;;27.70;43.10;98763.19;6044100;23;20185;-86
2022/07/06 05:57:38;;;;;;;3.13;1.40;;;;;;;27.80;43.92;98770.94;6068958;23;20557;-87
2022/07/06 06:00:05;;;;;;;4.35;1.05;;;;;;;27.88;42.89;98765.38;6067441;23;20164;-86
2022/07/06 06:02:40;;;;;;;2.35;1.58;;;;;;;27.79;42.37;98769.25;6067630;23;20153;-87
2022/07/06 06:05:10;;;;;;;4.53;1.60;;;;;;;28.06;40.87;98763.00;6043796;23;20227;-87
2022/07/06 06:07:37;;;;;;;2.85;1.25;;;;;;;28.36;41.81;98774.28;6069263;23;20146;-87
2022/07/06 06:10:07;;;;;;;3.00;1.50;;;;;;;28.53;41.56;98772.91;6068013;23;20168;-86
2022/07/06 06:12:33;;;;;;;3.42;1.23;;;;;;;28.55;40.84;98774.38;6068847;23;20153;-86
2022/07/06 06:14:58;;;;;;;2.50;1.52;;;;;;;28.72;41.02;98768.63;6067241;23;20315;-87
2022/07/06 06:17:23;;;;;;;4.57;1.67;;;;;;;28.85;41.82;98768.66;6068883;23;20213;-87
2022/07/06 06:19:49;;;;;;;3.08;1.52;;;;;;;29.14;40.69;98760.16;6043553;23;20175;-87
2022/07/06 06:22:14;;;;;;;3.20;1.40;;;;;;;29.31;39.41;98756.00;6068032;23;20153;-86
2022/07/06 06:24:40;;;;;;;8.23;1.60;;;;;;;29.40;39.87;98759.34;6043394;23;20153;-87
2022/07/06 06:27:05;;;;;;;3.33;1.70;;;;;;;29.54;40.61;98761.78;6043546;23;20577;-86
2022/07/06 06:29:31;;;;;;;2.08;1.02;;;;;;;29.69;39.74;98762.38;6067714;23;20252;-86
2022/07/06 06:31:56;;;;;;;4.18;1.30;;;;;;;29.83;38.99;98766.75;6043370;23;20548;-86
2022/07/06 06:34:22;;;;;;;3.85;1.83;;;;;;;30.09;39.17;98762.28;6068065;23;20161;-86
2022/07/06 06:36:48;;;;;;;3.92;1.88;;;;;;;30.39;39.74;98767.00;6068689;23;20477;-87
2022/07/06 06:39:13;;;;;;;4.32;1.13;;;;;;;30.61;36.11;98775.59;6067522;23;20196;-87
2022/07/06 06:41:38;;;;;;;6.97;1.77;;;;;;;30.63;36.30;98773.53;6068335;23;20153;-87
2022/07/06 06:44:04;;;;;;;2.78;1.25;;;;;;;30.89;35.55;98772.50;6067135;23;20168;-88
2022/07/06 06:46:29;;;;;;;2.40;1.30;;;;;;;30.98;34.66;98766.63;6067436;23;20153;-86
2022/07/06 06:48:55;;;;;;;1.85;0.88;;;;;;;31.15;33.60;98766.91;6043650;23;20584;-87
2022/07/06 06:51:20;;;;;;;3.35;1.00;;;;;;;31.46;33.54;98774.19;6067149;23;20508;-87
2022/07/06 06:53:46;;;;;;;2.75;1.08;;;;;;;31.57;33.71;98768.88;6068927;23;20153;-87
2022/07/06 06:56:12;;;;;;;4.45;1.80;;;;;;;31.57;33.39;98766.16;6068454;23;20191;-87
2022/07/06 06:58:37;;;;;;;9.13;1.50;;;;;;;31.82;33.63;98763.38;6068541;23;20149;-87
2022/07/06 07:01:04;;;;;;;2.33;1.20;;;;;;;31.91;34.11;98759.31;6068378;23;20237;-87
2022/07/06 07:03:29;;;;;;;3.50;1.45;;;;;;;32.16;32.91;98760.06;6043094;23;20235;-86
2022/07/06 07:05:55;;;;;;;2.85;1.33;;;;;;;32.40;32.11;98750.16;6068036;23;20232;-87
2022/07/06 07:08:20;;;;;;;2.00;0.98;;;;;;;32.68;33.28;98753.13;6043191;23;20200;-87
2022/07/06 07:10:46;;;;;;;4.85;1.40;;;;;;;32.89;31.61;98748.25;6068115;23;20169;-87
2022/07/06 07:13:11;;;;;;;3.00;1.42;;;;;;;33.11;31.97;98747.47;6068738;23;20513;-87
2022/07/06 07:15:37;;;;;;;3.13;1.50;;;;;;;33.28;32.13;98753.06;6068470;23;20209;-87
2022/07/06 07:18:03;;;;;;;2.70;1.33;;;;;;;33.44;32.44;98757.75;6067451;23;20157;-87
2022/07/06 07:20:29;;;;;;;2.63;1.33;;;;;;;33.11;32.30;98746.66;6067436;23;20606;-87
2022/07/06 07:22:55;;;;;;;3.63;1.92;;;;;;;33.36;33.15;98756.22;6043255;23;20160;-87
2022/07/06 07:25:20;;;;;;;5.93;1.42;;;;;;;33.22;33.09;98754.81;6068312;23;20471;-88
2022/07/06 07:27:46;;;;;;;4.00;1.67;;;;;;;33.14;32.60;98763.31;6066937;23;20157;-87
2022/07/06 07:30:12;;;;;;;4.18;1.52;;;;;;;33.29;33.29;98755.53;6068736;23;20157;-86
2022/07/06 07:32:40;;;;;;;5.38;1.85;;;;;;;33.43;32.58;98761.56;6043056;23;20167;-87
2022/07/06 07:35:06;;;;;;;3.47;1.70;;;;;;;33.31;33.61;98755.28;6067720;23;20185;-88
2022/07/06 07:37:32;;;;;;;3.05;1.70;;;;;;;33.24;32.59;98757.28;6068257;23;20248;-88
2022/07/06 07:39:58;;;;;;;3.30;1.95;;;;;;;33.33;33.33;98751.25;6069085;23;20185;-88
2022/07/06 07:42:23;;;;;;;3.50;1.90;;;;;;;33.58;33.78;98748.34;6045040;23;20157;-88
2022/07/06 07:44:49;;;;;;;2.20;1.25;;;;;;;33.71;33.00;98747.28;6069771;23;20163;-87
2022/07/06 07:47:15;;;;;;;7.15;2.33;;;;;;;33.72;32.82;98747.03;6068979;23;20168;-87
2022/07/06 07:49:40;;;;;;;3.50;1.83;;;;;;;33.50;34.76;98747.84;6045101;23;20578;-87
2022/07/06 07:52:06;;;;;;;3.90;2.45;;;;;;;33.81;33.64;98740.16;6068875;23;20161;-87
2022/07/06 07:54:31;;;;;;;2.80;1.42;;;;;;;33.98;33.07;98738.38;6068262;23;20161;-86
2022/07/06 07:56:57;;;;;;;5.38;2.50;;;;;;;34.22;33.71;98743.75;6070667;23;20181;-87
2022/07/06 07:59:22;;;;;;;5.53;2.35;;;;;;;34.19;33.09;98734.19;6068839;23;20153;-88
2022/07/06 08:01:48;;;;;;;4.97;2.25;;;;;;;34.24;34.09;98736.19;6068852;23;20157;-88
2022/07/06 08:04:14;;;;;;;2.83;1.40;;;;;;;34.37;33.11;98739.44;6068719;23;20157;-87
2022/07/06 08:06:39;;;;;;;3.97;1.98;;;;;;;34.00;32.92;98732.66;6068583;23;20161;-88
2022/07/06 08:09:07;;;;;;;4.07;2.00;;;;;;;34.20;33.44;98735.03;6069573;23;20175;-88
2022/07/06 08:11:33;;;;;;;3.88;2.00;;;;;;;34.08;34.05;98729.59;6069498;23;20604;-89
2022/07/06 08:13:59;;;;;;;3.70;2.03;;;;;;;33.96;33.49;98734.22;6068656;23;20164;-88
2022/07/06 08:16:24;;;;;;;3.80;2.17;;;;;;;34.11;33.34;98740.00;6069379;23;20177;-87
2022/07/06 08:18:50;;;;;;;3.40;2.00;;;;;;;34.15;33.32;98732.19;6069694;23;20572;-88
2022/07/06 08:21:15;;;;;;;4.85;2.38;;;;;;;34.19;33.58;98728.75;6069862;23;20153;-88
2022/07/06 08:23:41;;;;;;;3.75;1.88;;;;;;;34.34;33.07;98739.94;6068269;23;20157;-87
2022/07/06 08:26:06;;;;;;;4.03;2.60;;;;;;;34.59;33.26;98734.97;6069629;23;20145;-88
2022/07/06 08:28:32;;;;;;;4.43;2.30;;;;;;;34.57;32.26;98737.13;6044349;23;20171;-88
2022/07/06 08:30:57;;;;;;;3.90;1.83;;;;;;;34.28;32.72;98738.16;6044211;23;20172;-88
2022/07/06 08:33:23;;;;;;;4.20;2.55;;;;;;;34.64;32.91;98733.44;6069602;23;20149;-87
2022/07/06 08:35:48;;;;;;;3.20;2.10;;;;;;;34.67;32.74;98731.03;6069470;23;20551;-87
2022/07/06 08:38:14;;;;;;;4.28;2.40;;;;;;;34.59;32.54;98723.28;6069262;23;20153;-87
2022/07/06 08:40:40;;;;;;;3.65;2.05;;;;;;;34.40;32.59;98730.81;6069074;23;20299;-88
2022/07/06 08:43:06;;;;;;;4.65;2.30;;;;;;;34.51;32.21;98721.72;6069517;23;20150;-87
2022/07/06 08:45:34;;;;;;;3.58;2.22;;;;;;;34.45;32.93;98728.16;6069182;23;20177;-89
2022/07/06 08:48:04;;;;;;;3.75;2.28;;;;;;;34.09;33.39;98725.84;6045015;23;20228;-88
2022/07/06 08:50:30;;;;;;;3.50;2.38;;;;;;;34.24;32.83;98720.69;6069179;23;20645;-88
2022/07/06 08:52:56;;;;;;;4.18;2.20;;;;;;;34.37;33.61;98731.28;6069078;23;20236;-87
2022/07/06 08:55:21;;;;;;;4.25;2.42;;;;;;;34.42;32.85;98728.66;6069356;23;20185;-87
2022/07/06 08:57:47;;;;;;;6.30;2.55;;;;;;;34.50;33.22;98725.53;6069041;23;20307;-88
2022/07/06 09:00:13;;;;;;;9.65;2.40;;;;;;;34.53;32.10;98726.94;6044021;23;20221;-88
2022/07/06 09:02:41;;;;;;;3.50;2.28;;;;;;;34.82;31.92;98722.31;6069395;23;20284;-90
2022/07/06 09:05:08;;;;;;;6.97;3.00;;;;;;;34.77;32.08;98725.78;6069254;23;20153;-88
2022/07/06 09:07:34;;;;;;;4.47;2.17;;;;;;;35.20;32.42;98719.69;6068940;23;20149;-88
2022/07/06 09:10:01;;;;;;;5.80;2.60;;;;;;;35.31;31.36;98718.78;6068822;23;20176;-89
2022/07/06 09:12:27;;;;;;;4.07;2.20;;;;;;;35.51;31.74;98723.72;6069049;23;20539;-88
2022/07/06 09:14:56;;;;;;;9.40;2.95;;;;;;;35.33;31.17;98719.34;6069198;23;20192;-88
2022/07/06 09:17:27;;;;;;;9.68;2.58;;;;;;;35.41;32.21;98716.22;6069256;23;20168;-88
2022/07/06 09:19:53;;;;;;;3.42;2.30;;;;;;;35.51;31.81;98718.28;6043752;23;20159;-88
2022/07/06 09:22:27;;;;;;;9.50;3.15;;;;;;;35.53;31.31;98714.25;6069249;23;20232;-88
2022/07/06 09:24:53;;;;;;;4.40;2.40;;;;;;;35.87;31.73;98712.25;6067747;23;20149;-87
2022/07/06 09:27:18;;;;;;;4.38;2.25;;;;;;;36.03;30.73;98714.13;6067632;23;20157;-88
2022/07/06 09:29:45;;;;;;;6.30;2.47;;;;;;;35.83;29.71;98713.81;6043813;23;20575;-89
2022/07/06 09:32:10;;;;;;;5.57;2.47;;;;;;;35.66;31.30;98702.16;6067755;23;20189;-89
2022/07/06 09:34:49;;;;;;;3.38;2.00;;;;;;;35.67;31.31;98707.34;6043719;23;20248;-88
2022/07/06 09:37:14;;;;;;;5.55;2.40;;;;;;;36.08;29.86;98699.72;6043695;23;20160;-87
2022/07/06 09:39:42;;;;;;;6.65;3.10;;;;;;;36.22;31.13;98700.94;6068633;23;20157;-88
2022/07/06 09:42:08;;;;;;;5.78;2.42;;;;;;;35.92;30.33;98700.56;6043387;23;20521;-89
2022/07/06 09:44:36;;;;;;;4.10;2.42;;;;;;;35.87;29.77;98697.78;6068739;23;20241;-87
2022/07/06 09:47:05;;;;;;;4.60;2.42;;;;;;;35.87;31.12;98692.31;6068590;23;20153;-87
2022/07/06 09:49:31;;;;;;;4.00;2.45;;;;;;;36.15;30.98;98683.94;6068647;23;20153;-89
2022/07/06 09:51:59;;;;;;;4.65;2.50;;;;;;;36.29;30.19;98691.50;6068584;23;20216;-87
2022/07/06 09:54:25;;;;;;;4.30;2.90;;;;;;;36.28;30.71;98683.56;6068515;23;20149;-88
2022/07/06 09:56:52;;;;;;;5.95;2.55;;;;;;;36.38;29.89;98686.38;6068594;23;20240;-89
2022/07/06 09:59:23;;;;;;;4.07;2.40;;;;;;;36.62;29.71;98687.75;6068567;23;20159;-87
2022/07/06 10:02:00;;;;;;;5.05;2.97;;;;;;;36.69;29.50;98685.63;6068663;23;20144;-88
2022/07/06 10:04:27;;;;;;;5.75;2.67;;;;;;;36.58;30.46;98672.97;6068502;23;20163;-88
2022/07/06 10:06:54;;;;;;;5.13;2.30;;;;;;;36.94;29.25;98680.41;6068475;23;20149;-88
2022/07/06 10:09:21;;;;;;;4.68;2.78;;;;;;;36.92;29.39;98679.78;6068713;23;20169;-88
2022/07/06 10:12:00;;;;;;;4.78;2.15;;;;;;;37.20;29.69;98675.13;6068388;23;20184;-88
2022/07/06 10:14:32;;;;;;;5.65;2.20;;;;;;;37.35;29.25;98670.56;6068325;23;20165;-87
2022/07/06 10:16:59;;;;;;;4.25;2.47;;;;;;;37.38;29.65;98663.75;6068484;23;20181;-88
2022/07/06 10:19:26;;;;;;;4.43;2.83;;;;;;;37.26;28.38;98663.97;6068412;23;20637;-88
2022/07/06 10:21:52;;;;;;;3.80;2.58;;;;;;;37.46;29.36;98664.09;6068358;23;20163;-88
2022/07/06 10:24:19;;;;;;;4.15;2.70;;;;;;;37.43;28.17;98669.28;6069059;23;20228;-88
2022/07/06 10:26:46;;;;;;;4.85;2.88;;;;;;;36.85;29.25;98665.53;6067331;23;20148;-88
2022/07/06 10:29:11;;;;;;;3.40;2.20;;;;;;;36.66;30.02;98664.28;6068347;23;20160;-87
2022/07/06 10:31:40;;;;;;;5.80;2.58;;;;;;;36.56;29.91;98661.47;6068726;23;20149;-87
2022/07/06 10:34:09;;;;;;;4.43;2.80;;;;;;;36.88;29.27;98656.00;6068287;23;20156;-87
2022/07/06 10:36:42;;;;;;;6.53;2.72;;;;;;;36.87;29.92;98649.72;6068026;23;20173;-87
2022/07/06 10:41:55;;;;;;;7.07;2.55;;;;;;;36.79;29.44;98644.72;6068978;23;20149;-87
2022/07/06 10:44:23;;;;;;;4.80;2.42;;;;;;;36.72;29.81;98651.50;6067033;23;20165;-87
2022/07/06 10:46:56;;;;;;;3.42;2.30;;;;;;;36.99;28.70;98640.53;6068246;23;20205;-88
2022/07/06 10:49:24;;;;;;;7.65;3.58;;;;;;;36.86;28.66;98650.81;6068555;23;20142;-87
2022/07/06 10:51:50;;;;;;;3.40;2.47;;;;;;;37.11;28.53;98643.91;6068271;23;20224;-88
2022/07/06 10:54:18;;;;;;;4.88;2.72;;;;;;;36.87;29.46;98646.97;6068903;23;20176;-88
2022/07/06 10:56:50;;;;;;;5.68;3.00;;;;;;;36.48;29.85;98651.00;6068816;23;20218;-89
2022/07/06 10:59:18;;;;;;;5.88;2.40;;;;;;;36.41;29.89;98653.09;6068544;23;20169;-87
2022/07/06 11:02:16;;;;;;;5.55;3.03;;;;;;;36.30;29.26;98649.44;6042997;23;20168;-88
2022/07/06 11:04:46;;;;;;;3.95;2.65;;;;;;;36.04;30.27;98654.91;6068131;23;20145;-90
2022/07/06 11:07:17;;;;;;;6.97;2.22;;;;;;;35.77;30.24;98647.47;6068459;23;20570;-88
2022/07/06 11:10:00;;;;;;;8.65;2.63;;;;;;;35.50;31.29;98653.91;6066856;23;20205;-88
2022/07/06 11:12:26;;;;;;;12.82;3.22;;;;;;;35.12;31.54;98657.44;6044232;23;20173;-88
2022/07/06 11:14:53;;;;;;;3.97;2.20;;;;;;;34.85;31.45;98656.47;6070280;23;20173;-89
2022/07/06 11:17:19;;;;;;;8.18;2.72;;;;;;;34.83;31.77;98655.91;6070688;23;20203;-88
2022/07/06 11:19:57;;;;;;;11.48;2.90;;;;;;;34.44;32.07;98649.47;6070025;23;20160;-88
2022/07/06 11:22:24;;;;;;;5.30;2.33;;;;;;;34.56;32.35;98648.38;6069189;23;20570;-87
2022/07/06 11:24:51;;;;;;;8.52;2.60;;;;;;;34.41;31.97;98648.06;6069911;23;20220;-88
2022/07/06 11:27:17;;;;;;;4.75;2.45;;;;;;;34.22;31.97;98646.66;6069737;23;20180;-88
2022/07/06 11:29:44;;;;;;;4.18;2.53;;;;;;;34.15;32.44;98642.41;6069879;23;20153;-88
2022/07/06 11:32:11;;;;;;;6.88;2.70;;;;;;;33.99;32.65;98643.97;6070012;23;20157;-88
2022/07/06 11:34:40;;;;;;;4.38;2.35;;;;;;;33.99;33.31;98642.06;6069784;23;20149;-90
2022/07/06 11:37:11;;;;;;;3.67;2.30;;;;;;;34.30;33.85;98638.09;6070495;23;20153;-89
2022/07/06 11:39:40;;;;;;;4.15;2.00;;;;;;;34.44;32.40;98633.97;6070180;23;20153;-89